Time;durP1;ratioP1;P1;durP2;ratioP2;P2;SDS_P1;SDS_P2;PMS_P1;PMS_P2;Temp;Humidity;BMP_temperature;BMP_pressure;BME280_temperature;BME280_humidity;BME280_pressure;Samples;Min_cycle;Max_cycle;Signal;HPM_P1;HPM_P2
2023/05/22 00:00:34;;;;;;;29.63;18.20;;;;;;;15.14;100.00;101653.22;4998596;28;20056;-78
2023/05/22 00:03:19;;;;;;;32.33;18.60;;;;;;;15.18;100.00;101652.09;4987733;28;20072;-79
2023/05/22 00:06:05;;;;;;;29.23;17.98;;;;;;;15.20;100.00;101650.22;4995065;28;20132;-78
2023/05/22 00:08:49;;;;;;;26.48;17.75;;;;;;;15.19;100.00;101648.47;4996973;28;20044;-77
2023/05/22 00:11:36;;;;;;;30.17;18.90;;;;;;;15.18;100.00;101654.75;4997523;28;20124;-78
2023/05/22 00:14:20;;;;;;;33.83;19.77;;;;;;;15.20;100.00;101660.91;4996065;28;20049;-77
2023/05/22 00:17:04;;;;;;;35.25;20.70;;;;;;;15.20;100.00;101652.91;4997670;28;20103;-80
2023/05/22 00:19:48;;;;;;;32.38;18.73;;;;;;;15.16;100.00;101633.50;4983107;28;20133;-81
2023/05/22 00:22:36;;;;;;;34.40;20.00;;;;;;;15.12;100.00;101631.06;4978007;28;20103;-80
2023/05/22 00:25:20;;;;;;;35.30;20.33;;;;;;;15.05;100.00;101618.06;4994687;28;20040;-81
2023/05/22 00:28:05;;;;;;;38.60;21.45;;;;;;;15.00;100.00;101616.59;4992778;28;20053;-81
2023/05/22 00:30:51;;;;;;;38.70;21.40;;;;;;;14.97;100.00;101620.28;4995235;28;20157;-80
2023/05/22 00:33:36;;;;;;;38.47;22.73;;;;;;;14.97;100.00;101620.28;4995608;28;20041;-80
2023/05/22 00:36:20;;;;;;;38.28;22.02;;;;;;;14.96;100.00;101610.56;4965883;28;20859;-79
2023/05/22 00:39:05;;;;;;;39.40;22.98;;;;;;;14.94;100.00;101601.78;4981099;28;20077;-78
2023/05/22 00:41:49;;;;;;;38.45;22.60;;;;;;;14.95;100.00;101611.50;4969767;28;20108;-78
2023/05/22 00:44:33;;;;;;;40.65;23.45;;;;;;;14.94;100.00;101597.28;4994962;28;20585;-78
2023/05/22 00:47:17;;;;;;;42.25;23.10;;;;;;;14.94;100.00;101586.63;4981103;28;20083;-79
2023/05/22 00:50:02;;;;;;;40.30;24.25;;;;;;;14.96;100.00;101572.34;4996255;28;20043;-77
2023/05/22 00:52:49;;;;;;;45.55;24.67;;;;;;;14.96;100.00;101573.22;4980366;28;20560;-79
2023/05/22 00:55:33;;;;;;;41.08;24.08;;;;;;;14.96;100.00;101572.34;4980743;28;20052;-78
2023/05/22 00:58:17;;;;;;;43.15;24.77;;;;;;;14.97;100.00;101564.28;4982564;28;20076;-78
2023/05/22 01:01:01;;;;;;;40.45;24.25;;;;;;;14.98;100.00;101574.00;4983285;28;20519;-79
2023/05/22 01:03:45;;;;;;;43.00;24.35;;;;;;;14.98;100.00;101571.34;4994188;28;20060;-78
2023/05/22 01:06:32;;;;;;;41.55;23.65;;;;;;;14.95;100.00;101566.19;4997241;28;20131;-82
2023/05/22 01:09:16;;;;;;;44.28;24.58;;;;;;;14.97;100.00;101574.09;4999066;28;20052;-78
2023/05/22 01:12:03;;;;;;;47.35;26.30;;;;;;;14.99;100.00;101562.38;4982564;28;20152;-77
2023/05/22 01:15:36;;;;;;;51.63;26.08;;;;;;;15.01;100.00;101565.84;4994674;28;20088;-78
2023/05/22 01:18:29;;;;;;;45.42;24.25;;;;;;;15.04;100.00;101560.34;4907164;28;20060;-76
2023/05/22 01:21:23;;;;;;;46.22;26.55;;;;;;;15.04;100.00;101536.34;4996037;28;20044;-76
2023/05/22 01:24:10;;;;;;;47.85;25.08;;;;;;;15.06;100.00;101525.59;4967295;28;20142;-77
2023/05/22 01:27:33;;;;;;;46.80;25.42;;;;;;;15.05;100.00;101514.06;4993334;28;20108;-76
2023/05/22 01:30:36;;;;;;;49.83;26.52;;;;;;;15.07;100.00;101485.53;4995570;28;20056;-76
2023/05/22 01:33:20;;;;;;;48.45;26.75;;;;;;;15.06;100.00;101473.16;4994161;28;20044;-78
2023/05/22 01:36:06;;;;;;;47.20;26.92;;;;;;;15.07;100.00;101485.53;4981090;28;20057;-78
2023/05/22 01:38:51;;;;;;;46.83;26.75;;;;;;;15.10;100.00;101518.31;4979576;28;20103;-77
2023/05/22 01:41:38;;;;;;;46.03;25.48;;;;;;;15.12;100.00;101519.06;4978231;28;20096;-77
2023/05/22 01:44:24;;;;;;;40.65;23.23;;;;;;;15.04;100.00;101499.03;4995468;28;21952;-77
2023/05/22 01:47:09;;;;;;;38.10;22.25;;;;;;;15.03;100.00;101485.78;4979278;28;21920;-78
2023/05/22 01:49:53;;;;;;;37.40;21.48;;;;;;;15.02;100.00;101495.59;4995864;28;20049;-77
2023/05/22 01:53:10;;;;;;;38.47;22.33;;;;;;;15.03;100.00;101494.63;4983538;28;20057;-78
2023/05/22 01:56:04;;;;;;;38.80;23.02;;;;;;;15.06;100.00;101482.94;4977712;28;20052;-77
2023/05/22 01:59:06;;;;;;;40.00;23.88;;;;;;;15.05;100.00;101482.06;4997581;28;20041;-77
2023/05/22 02:01:51;;;;;;;45.33;25.30;;;;;;;15.03;100.00;101473.31;4980115;28;20152;-77
2023/05/22 02:04:38;;;;;;;44.45;25.40;;;;;;;15.01;100.00;101475.19;4955346;28;20056;-78
2023/05/22 02:07:26;;;;;;;43.08;25.33;;;;;;;14.98;100.00;101470.03;4983058;28;20037;-76
2023/05/22 02:10:12;;;;;;;41.97;25.58;;;;;;;14.97;100.00;101470.97;4992284;28;20095;-77
2023/05/22 02:12:56;;;;;;;43.13;25.40;;;;;;;14.96;100.00;101482.59;4981247;28;20045;-77
2023/05/22 02:15:40;;;;;;;46.05;25.67;;;;;;;14.93;100.00;101488.09;4982226;28;20060;-78
2023/05/22 02:18:28;;;;;;;43.70;25.50;;;;;;;14.91;100.00;101476.63;4979121;28;20401;-77
2023/05/22 02:21:13;;;;;;;44.70;24.73;;;;;;;14.86;100.00;101476.03;4991151;28;20080;-77
2023/05/22 02:23:57;;;;;;;46.58;24.52;;;;;;;14.83;100.00;101484.19;4993315;28;20040;-76
2023/05/22 02:26:41;;;;;;;44.08;26.60;;;;;;;14.83;100.00;101494.84;4992373;28;20561;-77
2023/05/22 02:29:25;;;;;;;41.42;24.55;;;;;;;14.82;100.00;101479.81;4980157;28;20197;-76
2023/05/22 02:32:10;;;;;;;47.47;27.13;;;;;;;14.83;100.00;101486.84;4981818;28;20112;-76
2023/05/22 02:34:54;;;;;;;45.15;26.23;;;;;;;14.82;100.00;101485.13;4998311;28;20064;-76
2023/05/22 02:37:38;;;;;;;49.42;26.83;;;;;;;14.81;100.00;101478.94;4980039;28;20044;-77
2023/05/22 02:40:25;;;;;;;43.05;25.55;;;;;;;14.80;100.00;101483.41;4996396;28;20076;-77
2023/05/22 02:43:09;;;;;;;43.50;24.95;;;;;;;14.79;100.00;101479.03;5000043;28;20192;-77
2023/05/22 02:45:53;;;;;;;46.17;26.88;;;;;;;14.82;100.00;101488.63;4999688;28;20072;-76
2023/05/22 02:48:37;;;;;;;45.25;26.25;;;;;;;14.82;100.00;101490.47;5000343;28;21937;-78
2023/05/22 02:51:21;;;;;;;49.95;27.50;;;;;;;14.80;100.00;101499.41;4988016;28;20100;-78
2023/05/22 02:54:05;;;;;;;45.90;26.48;;;;;;;14.79;100.00;101502.16;4989342;28;20072;-78
2023/05/22 02:56:49;;;;;;;51.38;27.35;;;;;;;14.78;100.00;101501.28;5001620;28;20129;-77
2023/05/22 02:59:35;;;;;;;48.53;26.88;;;;;;;14.77;100.00;101493.38;5001602;28;20048;-76
2023/05/22 03:02:24;;;;;;;48.65;27.10;;;;;;;14.75;100.00;101480.13;4988235;28;20631;-78
2023/05/22 03:05:10;;;;;;;46.80;27.05;;;;;;;14.72;100.00;101480.28;5001577;28;20088;-77
2023/05/22 03:07:54;;;;;;;45.50;27.38;;;;;;;14.72;100.00;101487.38;5001882;28;20108;-77
2023/05/22 03:10:39;;;;;;;50.08;27.63;;;;;;;14.72;100.00;101488.25;5002786;28;20052;-78
2023/05/22 03:13:23;;;;;;;49.40;27.38;;;;;;;14.69;100.00;101487.53;5002394;28;20052;-78
2023/05/22 03:16:08;;;;;;;51.20;27.95;;;;;;;14.64;100.00;101483.31;4974127;28;20567;-78
2023/05/22 03:19:09;;;;;;;47.47;28.60;;;;;;;14.60;100.00;101491.56;5002650;28;21638;-77
2023/05/22 03:21:53;;;;;;;46.97;26.58;;;;;;;14.59;100.00;101501.34;5001119;28;20081;-78
2023/05/22 03:24:38;;;;;;;44.35;27.23;;;;;;;14.57;100.00;101497.91;4989196;28;20112;-77
2023/05/22 03:27:23;;;;;;;46.65;26.50;;;;;;;14.54;100.00;101495.38;5001722;28;20420;-77
2023/05/22 03:30:07;;;;;;;45.78;26.42;;;;;;;14.52;100.00;101510.59;4989645;28;20685;-78
2023/05/22 03:32:52;;;;;;;48.80;27.63;;;;;;;14.49;100.00;101513.44;4990186;28;20057;-78
2023/05/22 03:35:36;;;;;;;50.50;27.90;;;;;;;14.46;100.00;101510.91;5003980;28;20036;-77
2023/05/22 03:38:27;;;;;;;46.03;26.05;;;;;;;14.42;100.00;101520.88;5001246;28;20110;-78
2023/05/22 03:41:13;;;;;;;52.13;26.42;;;;;;;14.37;100.00;101523.78;5000405;28;22011;-79
2023/05/22 03:43:58;;;;;;;51.30;26.65;;;;;;;14.34;100.00;101523.06;4990098;28;20112;-78
2023/05/22 03:46:41;;;;;;;46.95;28.63;;;;;;;14.33;100.00;101529.34;5001663;28;20145;-79
2023/05/22 03:49:26;;;;;;;47.47;27.90;;;;;;;14.30;100.00;101530.34;5002847;28;20061;-79
2023/05/22 03:52:10;;;;;;;49.70;27.25;;;;;;;14.29;100.00;101519.75;4973486;28;20088;-79
2023/05/22 03:54:54;;;;;;;49.42;28.27;;;;;;;14.26;100.00;101526.97;4987642;28;20045;-78
2023/05/22 03:57:38;;;;;;;49.65;26.80;;;;;;;14.22;100.00;101525.41;4970967;28;20053;-78
2023/05/22 04:00:22;;;;;;;49.15;27.25;;;;;;;14.20;100.00;101521.09;5002434;28;20057;-78
2023/05/22 04:03:11;;;;;;;48.80;26.92;;;;;;;14.19;100.00;101525.56;5000991;28;20040;-78
2023/05/22 04:05:58;;;;;;;47.33;27.15;;;;;;;14.14;100.00;101522.25;4988268;28;20064;-78
2023/05/22 04:08:42;;;;;;;46.55;25.80;;;;;;;14.13;100.00;101525.88;4985654;28;20041;-78
2023/05/22 04:11:29;;;;;;;44.53;26.08;;;;;;;14.12;100.00;101527.66;5002337;28;20184;-78
2023/05/22 04:14:13;;;;;;;49.38;27.80;;;;;;;14.12;100.00;101524.16;5002163;28;20196;-78
2023/05/22 04:17:00;;;;;;;45.92;25.90;;;;;;;14.12;100.00;101517.00;4984913;28;20576;-79
2023/05/22 04:19:45;;;;;;;48.20;26.40;;;;;;;14.13;100.00;101520.53;5000759;28;20060;-79
2023/05/22 04:22:29;;;;;;;50.58;27.52;;;;;;;14.15;100.00;101523.13;5000919;28;20080;-78
2023/05/22 04:25:16;;;;;;;45.63;25.85;;;;;;;14.13;100.00;101520.53;5002022;28;22056;-79
2023/05/22 04:28:03;;;;;;;43.28;26.52;;;;;;;14.15;100.00;101525.81;5000704;28;20044;-78
2023/05/22 04:30:56;;;;;;;48.20;26.55;;;;;;;14.15;100.00;101521.31;4987898;28;20116;-78
2023/05/22 04:33:40;;;;;;;49.27;26.60;;;;;;;14.14;100.00;101522.25;5003356;28;20116;-79
2023/05/22 04:36:28;;;;;;;43.45;25.30;;;;;;;14.15;100.00;101528.47;4989580;28;20531;-77
2023/05/22 04:39:13;;;;;;;48.03;27.02;;;;;;;14.13;100.00;101520.53;5001876;28;20441;-78
2023/05/22 04:42:04;;;;;;;44.70;25.70;;;;;;;14.17;100.00;101529.25;4987608;28;20126;-79
2023/05/22 04:44:48;;;;;;;47.15;27.30;;;;;;;14.19;100.00;101528.22;5004229;28;20084;-78
2023/05/22 04:50:37;;;;;;;47.45;27.08;;;;;;;14.23;100.00;101540.44;5003012;28;20052;-78
2023/05/22 04:53:21;;;;;;;48.30;27.63;;;;;;;14.26;100.00;101548.28;5000360;28;20048;-77
2023/05/22 04:56:06;;;;;;;49.42;26.08;;;;;;;14.26;100.00;101545.63;5004037;28;20826;-78
2023/05/22 04:58:55;;;;;;;47.38;27.92;;;;;;;14.30;100.00;101559.66;5002396;28;20068;-77
2023/05/22 05:01:40;;;;;;;51.10;27.27;;;;;;;14.30;100.00;101556.09;5002887;28;20531;-79
2023/05/22 05:04:24;;;;;;;48.05;26.58;;;;;;;14.34;100.00;101568.34;5001959;28;20095;-79
2023/05/22 05:07:08;;;;;;;49.42;26.80;;;;;;;14.32;100.00;101572.91;5003604;28;21649;-77
2023/05/22 05:09:52;;;;;;;41.83;24.33;;;;;;;14.29;100.00;101581.03;4986774;28;20083;-80
2023/05/22 05:12:36;;;;;;;33.67;19.77;;;;;;;14.23;100.00;101585.69;5001374;28;20056;-80
2023/05/22 05:15:22;;;;;;;29.83;18.83;;;;;;;14.19;100.00;101588.59;5001778;28;20072;-80
2023/05/22 05:18:11;;;;;;;30.40;18.02;;;;;;;14.16;100.00;101586.94;5000429;28;20080;-79
2023/05/22 05:20:54;;;;;;;27.40;15.73;;;;;;;14.12;100.00;101574.75;5001231;28;20076;-79
2023/05/22 05:23:39;;;;;;;24.15;13.77;;;;;;;14.07;100.00;101576.75;5000625;28;20053;-80
2023/05/22 05:26:25;;;;;;;21.15;12.23;;;;;;;14.03;100.00;101569.84;4998548;28;20856;-79
2023/05/22 05:29:11;;;;;;;25.13;13.40;;;;;;;13.98;100.00;101572.72;5000822;28;20091;-77
2023/05/22 05:31:55;;;;;;;19.27;12.48;;;;;;;13.95;100.00;101573.75;5000522;28;20045;-79
2023/05/22 05:34:41;;;;;;;17.25;11.60;;;;;;;13.92;100.00;101570.38;4972427;28;20145;-79
2023/05/22 05:37:28;;;;;;;20.67;11.02;;;;;;;13.92;100.00;101573.03;4999798;28;20041;-80
2023/05/22 05:40:15;;;;;;;19.58;10.75;;;;;;;13.93;100.00;101564.97;5000993;28;20610;-78
2023/05/22 05:42:59;;;;;;;18.83;10.10;;;;;;;14.00;100.00;101570.84;5001547;28;20048;-77
2023/05/22 05:45:43;;;;;;;18.92;10.32;;;;;;;14.05;100.00;101575.97;5001116;28;20072;-75
2023/05/22 05:48:30;;;;;;;17.75;9.80;;;;;;;14.05;100.00;101568.00;4989893;28;20506;-78
2023/05/22 05:51:20;;;;;;;15.02;9.05;;;;;;;14.11;100.00;101578.34;4990148;28;20053;-81
2023/05/22 05:54:04;;;;;;;13.68;9.10;;;;;;;14.15;100.00;101587.03;5003226;28;20099;-78
2023/05/22 05:56:48;;;;;;;19.20;9.38;;;;;;;14.17;100.00;101585.16;4986569;28;20125;-78
2023/05/22 05:59:32;;;;;;;15.98;9.35;;;;;;;14.19;100.00;101583.28;5003702;28;20041;-79
2023/05/22 06:02:16;;;;;;;18.83;8.82;;;;;;;14.20;100.00;101588.53;4985237;28;20056;-79
2023/05/22 06:05:14;;;;;;;15.40;8.15;;;;;;;14.23;100.00;101577.72;5000234;28;20969;-79
2023/05/22 06:07:58;;;;;;;13.65;7.72;;;;;;;14.25;100.00;101585.63;4988258;28;20049;-78
2023/05/22 06:10:42;;;;;;;14.07;8.77;;;;;;;14.25;100.00;101578.53;4986966;28;20048;-79
2023/05/22 06:13:31;;;;;;;13.63;8.48;;;;;;;14.26;100.00;101596.22;4999051;28;20093;-76
2023/05/22 06:16:15;;;;;;;14.10;8.40;;;;;;;14.29;100.00;101583.69;4986469;28;20063;-76
2023/05/22 06:19:00;;;;;;;15.65;8.88;;;;;;;14.31;100.00;101577.34;5001287;28;20143;-77
2023/05/22 06:21:46;;;;;;;14.93;7.85;;;;;;;14.31;100.00;101579.13;4989482;28;20095;-76
2023/05/22 06:27:33;;;;;;;14.27;7.38;;;;;;;14.40;100.00;101573.38;5083022;22;20087;-79
2023/05/22 06:30:21;;;;;;;14.57;7.75;;;;;;;14.40;100.00;101570.69;5030325;28;20513;-79
2023/05/22 06:33:05;;;;;;;14.80;7.68;;;;;;;14.43;100.00;101575.88;5016517;28;20047;-76
2023/05/22 06:35:52;;;;;;;12.63;7.95;;;;;;;14.47;100.00;101582.78;4999514;28;20053;-79
2023/05/22 06:38:39;;;;;;;13.43;8.50;;;;;;;14.51;100.00;101579.00;5033396;28;20091;-77
2023/05/22 06:41:32;;;;;;;11.48;7.50;;;;;;;14.54;100.00;101583.31;5035423;28;20055;-78
2023/05/22 06:44:16;;;;;;;11.02;7.18;;;;;;;14.60;100.00;101582.16;5035039;28;20107;-78
2023/05/22 06:47:00;;;;;;;13.57;7.40;;;;;;;14.65;100.00;101586.31;5017242;28;20558;-79
2023/05/22 06:49:44;;;;;;;9.88;7.50;;;;;;;14.70;100.00;101587.88;5033754;28;20095;-81
2023/05/22 06:52:29;;;;;;;14.75;7.60;;;;;;;14.74;100.00;101586.81;5031449;28;20173;-79
2023/05/22 06:55:13;;;;;;;13.15;8.02;;;;;;;14.76;100.00;101590.28;5015359;28;22016;-78
2023/05/22 06:57:57;;;;;;;12.40;7.65;;;;;;;14.80;100.00;101590.03;5004812;28;20052;-79
2023/05/22 07:00:41;;;;;;;17.63;8.27;;;;;;;14.85;100.00;101586.25;5033890;28;20094;-78
2023/05/22 07:03:26;;;;;;;11.60;7.55;;;;;;;14.88;100.00;101588.78;5015391;28;20150;-77
2023/05/22 07:06:10;;;;;;;16.38;8.32;;;;;;;14.93;100.00;101589.41;5021772;28;20121;-78
2023/05/22 07:08:55;;;;;;;13.73;8.15;;;;;;;15.00;100.00;101593.47;5032740;28;20460;-78
2023/05/22 07:11:41;;;;;;;13.23;7.68;;;;;;;15.02;100.00;101599.56;5035161;28;20035;-79
2023/05/22 07:14:25;;;;;;;14.25;7.75;;;;;;;15.12;100.00;101594.63;5015945;28;20052;-78
2023/05/22 07:17:10;;;;;;;13.07;7.95;;;;;;;15.31;100.00;101599.81;4989549;28;20053;-79
2023/05/22 07:19:54;;;;;;;17.70;7.40;;;;;;;15.58;100.00;101596.59;4987996;28;20760;-77
2023/05/22 07:22:38;;;;;;;11.85;8.38;;;;;;;15.89;100.00;101583.38;5022406;28;20072;-79
2023/05/22 07:25:22;;;;;;;12.25;7.20;;;;;;;16.18;100.00;101598.72;4997853;28;20063;-78
2023/05/22 07:33:46;;;;;;;10.60;6.78;;;;;;;16.58;100.00;101579.50;4994672;28;20072;-78
2023/05/22 07:38:19;;;;;;;10.98;7.65;;;;;;;16.58;100.00;101585.72;4991459;28;20172;-79
2023/05/22 07:47:13;;;;;;;11.88;7.20;;;;;;;16.78;100.00;101594.34;4992299;28;20078;-76
2023/05/22 08:00:31;;;;;;;12.93;6.57;;;;;;;17.02;100.00;101600.06;4992210;28;20111;-76
2023/05/22 08:09:29;;;;;;;11.85;5.47;;;;;;;16.83;100.00;101602.94;4991743;28;20056;-77
2023/05/22 08:18:21;;;;;;;7.35;5.30;;;;;;;16.74;100.00;101598.16;4951721;28;20129;-76
2023/05/22 08:22:55;;;;;;;6.97;4.20;;;;;;;16.66;100.00;101598.59;4944346;28;20057;-75
2023/05/22 09:20:48;;;;;;;9.35;5.80;;;;;;;16.98;100.00;101561.03;4927823;28;20144;-77
2023/05/22 09:23:36;;;;;;;8.50;5.60;;;;;;;17.08;100.00;101564.03;4916888;28;20217;-77
2023/05/22 09:26:21;;;;;;;8.13;5.20;;;;;;;17.16;100.00;101564.44;4914817;28;20129;-73
2023/05/22 09:29:08;;;;;;;6.82;5.28;;;;;;;17.16;100.00;101558.22;4926136;28;22121;-74
2023/05/22 09:31:52;;;;;;;8.88;5.43;;;;;;;17.10;100.00;101548.75;4911705;28;20069;-74
2023/05/22 09:34:36;;;;;;;11.52;5.25;;;;;;;17.03;100.00;101547.41;4901497;28;20055;-73
2023/05/22 09:37:21;;;;;;;8.00;5.15;;;;;;;17.00;100.00;101528.88;4905898;28;20837;-72
2023/05/22 09:40:16;;;;;;;7.25;5.18;;;;;;;17.00;100.00;101526.19;4922288;28;20050;-75
2023/05/22 09:43:01;;;;;;;7.78;5.00;;;;;;;16.99;100.00;101522.63;4913410;28;20058;-74
2023/05/22 09:45:45;;;;;;;8.85;5.55;;;;;;;16.99;100.00;101519.13;4916432;28;20770;-75
2023/05/22 09:48:34;;;;;;;6.30;5.18;;;;;;;17.00;100.00;101515.50;4919073;28;20069;-76
2023/05/22 09:51:25;;;;;;;7.95;5.78;;;;;;;17.07;100.00;101515.06;4927704;28;20105;-74
2023/05/22 09:54:13;;;;;;;7.05;5.68;;;;;;;17.07;100.00;101507.03;4928984;28;20622;-73
2023/05/22 09:56:58;;;;;;;6.32;5.50;;;;;;;17.12;100.00;101496.03;4948463;28;20071;-90
2023/05/22 09:59:43;;;;;;;7.47;5.40;;;;;;;17.21;100.00;101514.16;4935545;28;21115;-74
2023/05/22 10:02:29;;;;;;;10.52;6.40;;;;;;;17.25;100.00;101514.84;4916937;28;20110;-77
2023/05/22 10:05:20;;;;;;;8.73;6.53;;;;;;;17.30;100.00;101511.88;4931698;28;20102;-74
2023/05/22 10:08:10;;;;;;;8.93;7.10;;;;;;;17.37;100.00;101511.38;4917576;28;20197;-75
2023/05/22 10:10:54;;;;;;;10.57;6.95;;;;;;;17.43;100.00;101509.28;4931340;28;20126;-76
2023/05/22 10:13:40;;;;;;;10.18;6.93;;;;;;;17.47;100.00;101514.34;4902165;28;20102;-77
2023/05/22 10:16:27;;;;;;;9.77;7.43;;;;;;;17.59;100.00;101506.47;4914924;28;21128;-74
2023/05/22 10:19:11;;;;;;;9.90;7.43;;;;;;;17.77;100.00;101515.13;4928040;28;20146;-79
2023/05/22 10:21:57;;;;;;;9.13;7.25;;;;;;;17.88;100.00;101511.75;4924473;28;20146;-76
2023/05/22 10:24:41;;;;;;;9.73;7.55;;;;;;;18.00;100.00;101500.22;4916993;28;20886;-75
2023/05/22 10:27:25;;;;;;;8.77;6.95;;;;;;;18.09;100.00;101513.97;4915126;28;20057;-73
2023/05/22 10:30:55;;;;;;;11.35;7.88;;;;;;;18.24;100.00;101512.94;4931339;28;20621;-75
2023/05/22 10:33:46;;;;;;;12.68;8.35;;;;;;;18.35;100.00;101514.88;4921161;28;20070;-74
2023/05/22 10:36:49;;;;;;;11.30;7.25;;;;;;;18.47;100.00;101513.22;4916479;28;21537;-74
2023/05/22 10:39:53;;;;;;;11.32;7.68;;;;;;;18.60;100.00;101513.22;4930646;28;20358;-75
2023/05/22 10:42:39;;;;;;;10.55;7.65;;;;;;;18.72;100.00;101516.88;4930685;28;20114;-74
2023/05/22 10:45:26;;;;;;;10.10;8.02;;;;;;;18.81;100.00;101513.56;4916305;28;20079;-75
2023/05/22 10:48:13;;;;;;;12.02;7.72;;;;;;;18.87;100.00;101510.41;4931477;28;20238;-73
2023/05/22 10:50:58;;;;;;;9.82;7.28;;;;;;;18.91;100.00;101516.41;4927298;28;20055;-75
2023/05/22 10:53:44;;;;;;;10.82;7.70;;;;;;;18.94;100.00;101521.59;4917935;28;20050;-75
2023/05/22 10:56:36;;;;;;;11.18;8.20;;;;;;;18.96;100.00;101524.16;4918344;28;20078;-74
2023/05/22 10:59:32;;;;;;;10.57;7.78;;;;;;;18.98;100.00;101530.28;4920663;28;20162;-75
2023/05/22 11:02:28;;;;;;;9.95;7.32;;;;;;;19.01;100.00;101540.78;4930819;28;20086;-73
2023/05/22 11:05:20;;;;;;;11.63;7.78;;;;;;;19.16;100.00;101541.56;4931721;28;20517;-74
2023/05/22 11:08:26;;;;;;;11.77;8.18;;;;;;;19.31;100.00;101539.63;4924604;28;20054;-74
2023/05/22 11:11:14;;;;;;;10.77;8.10;;;;;;;19.53;100.00;101543.44;4930151;28;20118;-74
2023/05/22 11:14:04;;;;;;;13.43;8.82;;;;;;;19.64;100.00;101540.81;4928073;28;20685;-76
2023/05/22 11:16:49;;;;;;;15.30;8.48;;;;;;;19.64;100.00;101540.81;4912848;28;20422;-75
2023/05/22 11:19:36;;;;;;;12.00;9.45;;;;;;;19.59;100.00;101531.38;4903009;28;20655;-75
2023/05/22 11:22:20;;;;;;;12.20;9.23;;;;;;;19.57;100.00;101531.50;4923105;28;20042;-75
2023/05/22 11:25:10;;;;;;;13.57;8.85;;;;;;;19.56;100.00;101532.47;4922919;28;20334;-75
2023/05/22 11:27:54;;;;;;;11.57;8.40;;;;;;;19.56;100.00;101536.97;4928192;28;20050;-75
2023/05/22 11:30:42;;;;;;;15.40;8.65;;;;;;;19.52;100.00;101541.72;4915349;28;20805;-74
2023/05/22 11:33:27;;;;;;;10.00;8.23;;;;;;;19.60;100.00;101539.31;4913543;28;20051;-74
2023/05/22 11:36:11;;;;;;;13.85;8.93;;;;;;;19.72;100.00;101537.56;4928111;28;20085;-74
2023/05/22 11:38:58;;;;;;;10.68;7.88;;;;;;;19.85;100.00;101542.91;4915428;28;21379;-73
2023/05/22 11:41:43;;;;;;;11.95;8.40;;;;;;;20.03;100.00;101540.69;4921176;28;20086;-74
2023/05/22 11:44:27;;;;;;;11.60;9.25;;;;;;;20.09;100.00;101544.75;4899421;28;20106;-75
2023/05/22 11:47:11;;;;;;;10.77;8.60;;;;;;;20.12;100.00;101533.78;4898097;28;20073;-74
2023/05/22 11:49:56;;;;;;;10.80;8.35;;;;;;;20.19;100.00;101545.78;4912441;28;20186;-74
2023/05/22 11:52:42;;;;;;;12.05;9.10;;;;;;;20.26;100.00;101539.94;4928255;28;20054;-74
2023/05/22 11:55:25;;;;;;;12.98;9.38;;;;;;;20.23;100.00;101543.72;4922461;28;20810;-73
2023/05/22 11:58:09;;;;;;;12.05;8.63;;;;;;;20.30;100.00;101552.16;4928417;28;20735;-75
2023/05/22 12:00:58;;;;;;;12.07;9.45;;;;;;;20.42;100.00;101550.38;4930573;28;20460;-76
2023/05/22 12:03:43;;;;;;;11.73;8.60;;;;;;;20.48;100.00;101550.75;4935334;28;20079;-84
2023/05/22 12:06:32;;;;;;;11.23;8.43;;;;;;;20.47;100.00;101548.19;4954952;28;20177;-86
2023/05/22 12:09:22;;;;;;;10.85;8.60;;;;;;;20.42;100.00;101551.22;4908917;28;20058;-78
2023/05/22 12:12:10;;;;;;;13.80;9.05;;;;;;;20.39;100.00;101543.41;4943523;28;20187;-78
2023/05/22 12:14:56;;;;;;;10.88;8.18;;;;;;;20.46;100.00;101552.72;4929491;28;20174;-79
2023/05/22 12:17:41;;;;;;;10.90;8.32;;;;;;;20.52;100.00;101547.84;4935304;28;20057;-79
2023/05/22 12:20:29;;;;;;;12.50;8.57;;;;;;;20.46;100.00;101544.66;4932027;28;20058;-79
2023/05/22 12:23:24;;;;;;;12.27;8.70;;;;;;;20.47;100.00;101550.88;4933382;28;20053;-82
2023/05/22 12:26:10;;;;;;;12.38;8.88;;;;;;;20.36;100.00;101546.31;4952585;28;20061;-84
2023/05/22 12:28:54;;;;;;;12.25;9.00;;;;;;;20.30;100.00;101546.78;4945642;28;20129;-82
2023/05/22 12:31:38;;;;;;;11.52;9.27;;;;;;;20.21;100.00;101554.56;4944683;28;20199;-82
2023/05/22 12:34:23;;;;;;;11.10;8.68;;;;;;;20.21;100.00;101559.13;4973249;28;21228;-84
2023/05/22 12:37:27;;;;;;;14.13;9.73;;;;;;;20.12;100.00;101549.91;4950021;28;20198;-79
2023/05/22 12:40:11;;;;;;;11.55;8.90;;;;;;;20.12;100.00;101549.91;4960268;28;20184;-83
2023/05/22 12:42:57;;;;;;;10.57;8.10;;;;;;;20.21;100.00;101553.75;4948736;28;20856;-85
2023/05/22 12:45:41;;;;;;;10.40;7.25;;;;;;;20.08;100.00;101548.41;4967748;28;20453;-83
2023/05/22 12:48:25;;;;;;;12.18;7.13;;;;;;;20.01;100.00;101555.22;4961790;28;20096;-83
2023/05/22 12:51:12;;;;;;;10.35;7.53;;;;;;;20.04;100.00;101555.00;4963918;28;20149;-83
2023/05/22 12:54:00;;;;;;;9.70;7.13;;;;;;;20.05;100.00;101556.72;4959731;28;20062;-83
2023/05/22 12:56:44;;;;;;;8.13;6.20;;;;;;;20.04;100.00;101565.75;4943480;28;20045;-83
2023/05/22 12:59:29;;;;;;;8.38;6.63;;;;;;;20.04;100.00;101565.75;4949180;28;20066;-81
2023/05/22 13:02:14;;;;;;;7.57;5.32;;;;;;;20.01;100.00;101561.47;4948526;28;20097;-85
2023/05/22 13:04:58;;;;;;;7.32;5.30;;;;;;;19.98;100.00;101563.53;4943284;28;20510;-83
2023/05/22 13:07:42;;;;;;;7.10;5.10;;;;;;;19.98;100.00;101569.72;4962855;28;20045;-83
2023/05/22 13:10:27;;;;;;;8.60;6.07;;;;;;;20.02;100.00;101581.13;4962834;28;20061;-82
2023/05/22 13:13:11;;;;;;;9.93;7.05;;;;;;;20.01;100.00;101574.03;4964508;28;20056;-82
2023/05/22 13:15:55;;;;;;;9.88;6.53;;;;;;;19.92;100.00;101565.66;4965651;28;20112;-86
2023/05/22 13:18:39;;;;;;;10.13;7.10;;;;;;;19.97;100.00;101570.72;4962953;28;20097;-83
2023/05/22 13:21:24;;;;;;;10.40;7.50;;;;;;;20.00;100.00;101573.16;4930887;28;20588;-85
2023/05/22 13:24:08;;;;;;;9.57;6.60;;;;;;;20.01;100.00;101574.03;4949836;28;20525;-85
2023/05/22 13:26:59;;;;;;;8.82;6.93;;;;;;;19.99;100.00;101570.59;4963182;28;22295;-87
2023/05/22 13:29:44;;;;;;;9.00;6.35;;;;;;;20.00;100.00;101573.16;4966840;28;20073;-82
2023/05/22 13:32:28;;;;;;;7.47;5.93;;;;;;;20.02;100.00;101570.38;4950910;28;20121;-81
2023/05/22 13:35:13;;;;;;;8.70;6.18;;;;;;;20.08;100.00;101580.66;4963076;28;20048;-77
2023/05/22 13:38:00;;;;;;;5.65;4.95;;;;;;;20.14;100.00;101571.25;4966173;28;20053;-75
2023/05/22 13:40:44;;;;;;;8.27;5.97;;;;;;;20.14;100.00;101577.50;4966207;28;20152;-76
2023/05/22 13:43:31;;;;;;;8.05;5.78;;;;;;;20.11;100.00;101577.75;4965256;28;20114;-76
2023/05/22 13:46:16;;;;;;;7.95;5.93;;;;;;;20.11;100.00;101575.06;4967938;28;20048;-76
2023/05/22 13:49:00;;;;;;;8.27;6.13;;;;;;;20.08;100.00;101573.47;4966738;28;20128;-78
2023/05/22 13:51:47;;;;;;;7.40;5.63;;;;;;;20.08;100.00;101575.28;4964807;28;20113;-79
2023/05/22 13:54:31;;;;;;;8.32;5.72;;;;;;;20.09;100.00;101566.25;4944623;28;21686;-78
2023/05/22 13:57:15;;;;;;;9.55;6.38;;;;;;;20.14;100.00;101573.97;4952941;28;20045;-78
2023/05/22 13:59:59;;;;;;;13.98;7.22;;;;;;;20.18;100.00;101578.13;4963082;28;20080;-80
2023/05/22 14:02:44;;;;;;;7.30;5.72;;;;;;;20.17;100.00;101574.63;4950708;28;20132;-78
2023/05/22 14:05:28;;;;;;;6.15;4.82;;;;;;;20.18;100.00;101580.84;4965423;28;20061;-78
2023/05/22 14:08:12;;;;;;;7.43;4.88;;;;;;;20.12;100.00;101579.47;4946566;28;20797;-77
2023/05/22 14:10:56;;;;;;;9.90;5.53;;;;;;;20.09;100.00;101585.06;4952377;28;20061;-79
2023/05/22 14:13:44;;;;;;;9.02;5.40;;;;;;;20.10;100.00;101589.44;4960928;28;20106;-78